createdAt,value
2018-08-11T00:00:32.920Z,3.80
2018-08-11T00:01:06.842Z,3.80
2018-08-11T00:01:40.442Z,3.80
2018-08-11T00:02:14.112Z,4.10
2018-08-11T00:02:47.717Z,3.80
2018-08-11T00:03:21.325Z,3.70
2018-08-11T00:03:54.949Z,3.80
2018-08-11T00:04:28.581Z,3.90
2018-08-11T00:05:02.204Z,3.70
2018-08-11T00:05:35.795Z,4.03
2018-08-11T00:06:09.424Z,4.30
2018-08-11T00:06:43.050Z,4.25
2018-08-11T00:07:16.645Z,4.25
2018-08-11T00:07:50.593Z,4.40
2018-08-11T00:08:24.241Z,4.08
2018-08-11T00:08:57.844Z,3.98
2018-08-11T00:09:31.450Z,4.00
2018-08-11T00:10:06.965Z,4.10
2018-08-11T00:10:40.594Z,4.20
2018-08-11T00:11:14.259Z,4.10
2018-08-11T00:11:47.814Z,4.30
2018-08-11T00:12:21.433Z,4.20
2018-08-11T00:12:55.022Z,4.10
2018-08-11T00:13:28.691Z,4.40
2018-08-11T00:14:02.275Z,4.30
2018-08-11T00:14:35.955Z,4.17
2018-08-11T00:15:14.847Z,4.20
2018-08-11T00:15:48.424Z,4.28
2018-08-11T00:16:22.042Z,4.30
2018-08-11T00:16:55.639Z,4.78
2018-08-11T00:17:29.540Z,4.40
2018-08-11T00:18:03.181Z,4.92
2018-08-11T00:18:36.763Z,4.97
2018-08-11T00:19:10.328Z,4.80
2018-08-11T00:19:43.948Z,5.08
2018-08-11T00:20:23.901Z,5.03
2018-08-11T00:20:57.460Z,5.40
2018-08-11T00:21:31.128Z,5.40
2018-08-11T00:22:04.782Z,4.85
2018-08-11T00:22:39.025Z,5.40
2018-08-11T00:23:12.744Z,5.25
2018-08-11T00:23:46.397Z,5.80
2018-08-11T00:24:20.031Z,5.60
2018-08-11T00:24:53.567Z,5.58
2018-08-11T00:25:27.207Z,5.70
2018-08-11T00:26:00.869Z,5.67
2018-08-11T00:26:34.491Z,5.90
2018-08-11T00:27:08.086Z,5.67
2018-08-11T00:27:41.764Z,5.80
2018-08-11T00:28:15.347Z,5.92
2018-08-11T00:28:48.963Z,5.90
2018-08-11T00:29:22.535Z,6.20
2018-08-11T00:29:56.099Z,6.30
2018-08-11T00:30:29.816Z,6.20
2018-08-11T00:31:03.407Z,5.90
2018-08-11T00:31:37.229Z,6.25
2018-08-11T00:32:10.875Z,6.30
2018-08-11T00:32:44.483Z,6.20
2018-08-11T00:33:18.036Z,6.40
2018-08-11T00:33:51.596Z,6.70
2018-08-11T00:34:25.161Z,6.90
2018-08-11T00:34:59.362Z,10.72
2018-08-11T00:35:32.973Z,8.03
2018-08-11T00:36:06.642Z,6.97
2018-08-11T00:36:40.217Z,6.87
2018-08-11T00:37:13.785Z,7.20
2018-08-11T00:37:47.345Z,6.92
2018-08-11T00:38:20.970Z,6.70
2018-08-11T00:38:54.541Z,6.78
2018-08-11T00:39:28.116Z,6.47
2018-08-11T00:40:01.769Z,6.42
2018-08-11T00:40:35.315Z,6.97
2018-08-11T00:41:08.895Z,6.67
2018-08-11T00:41:42.473Z,6.95
2018-08-11T00:42:16.059Z,6.62
2018-08-11T00:42:50.304Z,7.10
2018-08-11T00:43:23.838Z,6.87
2018-08-11T00:43:57.486Z,6.95
2018-08-11T00:44:31.105Z,6.97
2018-08-11T00:45:08.447Z,7.08
2018-08-11T00:45:42.065Z,7.22
2018-08-11T00:46:15.718Z,7.33
2018-08-11T00:46:49.275Z,6.85
2018-08-11T00:47:22.861Z,7.10
2018-08-11T00:47:56.423Z,7.40
2018-08-11T00:48:30.152Z,7.17
2018-08-11T00:49:03.840Z,7.20
2018-08-11T00:49:37.534Z,7.05
2018-08-11T00:50:23.930Z,7.83
2018-08-11T00:50:57.557Z,7.62
2018-08-11T00:51:31.178Z,7.35
2018-08-11T00:52:04.889Z,7.63
2018-08-11T00:52:38.587Z,7.62
2018-08-11T00:53:12.245Z,7.58
2018-08-11T00:53:45.834Z,7.20
2018-08-11T00:54:19.433Z,6.90
2018-08-11T00:54:53.007Z,6.92
2018-08-11T00:55:26.610Z,7.67
2018-08-11T00:56:00.235Z,6.90
2018-08-11T00:56:33.796Z,7.08
2018-08-11T00:57:07.454Z,7.30
2018-08-11T00:57:41.375Z,7.17
2018-08-11T00:58:14.923Z,7.58
2018-08-11T00:58:48.596Z,7.67
2018-08-11T00:59:22.159Z,7.00
2018-08-11T00:59:55.765Z,7.37
2018-08-11T01:00:29.303Z,7.83
2018-08-11T01:01:02.919Z,7.55
2018-08-11T01:01:36.519Z,7.20
2018-08-11T01:02:10.165Z,7.65
2018-08-11T01:02:43.925Z,7.33
2018-08-11T01:03:17.581Z,7.50
2018-08-11T01:03:51.182Z,7.42
2018-08-11T01:04:25.090Z,7.25
2018-08-11T01:04:58.668Z,6.90
2018-08-11T01:05:32.309Z,6.53
2018-08-11T01:06:06.064Z,6.83
2018-08-11T01:06:39.689Z,6.72
2018-08-11T01:07:13.237Z,6.75
2018-08-11T01:07:47.395Z,6.40
2018-08-11T01:08:20.977Z,7.10
2018-08-11T01:08:54.547Z,6.50
2018-08-11T01:09:28.126Z,6.30
2018-08-11T01:10:01.676Z,6.00
2018-08-11T01:10:35.294Z,5.80
2018-08-11T01:11:08.934Z,5.80
2018-08-11T01:11:42.527Z,6.10
2018-08-11T01:12:16.114Z,6.47
2018-08-11T01:12:49.710Z,5.80
2018-08-11T01:13:23.285Z,6.00
2018-08-11T01:13:56.891Z,6.10
2018-08-11T01:14:30.495Z,6.10
2018-08-11T01:15:05.287Z,6.12
2018-08-11T01:15:38.912Z,6.10
2018-08-11T01:16:13.507Z,5.65
2018-08-11T01:16:47.095Z,5.92
2018-08-11T01:17:20.655Z,5.85
2018-08-11T01:17:54.218Z,5.53
2018-08-11T01:18:27.745Z,5.80
2018-08-11T01:19:01.357Z,5.42
2018-08-11T01:19:34.899Z,5.58
2018-08-11T01:20:10.336Z,5.25
2018-08-11T01:20:43.947Z,5.17
2018-08-11T01:21:17.583Z,5.20
2018-08-11T01:21:51.221Z,5.47
2018-08-11T01:22:24.890Z,5.70
2018-08-11T01:22:58.587Z,5.28
2018-08-11T01:23:32.125Z,5.50
2018-08-11T01:24:05.802Z,5.37
2018-08-11T01:24:39.437Z,5.20
2018-08-11T01:25:13.641Z,4.90
2018-08-11T01:25:47.223Z,5.10
2018-08-11T01:26:20.763Z,5.20
2018-08-11T01:26:54.461Z,5.10
2018-08-11T01:27:28.047Z,5.10
2018-08-11T01:28:01.604Z,4.90
2018-08-11T01:28:35.155Z,5.08
2018-08-11T01:29:08.755Z,5.37
2018-08-11T01:29:42.311Z,5.20
2018-08-11T01:30:19.514Z,5.28
2018-08-11T01:30:53.088Z,5.10
2018-08-11T01:31:26.700Z,5.20
2018-08-11T01:32:00.307Z,4.92
2018-08-11T01:32:33.917Z,4.90
2018-08-11T01:33:07.541Z,4.83
2018-08-11T01:33:41.124Z,5.17
2018-08-11T01:34:14.741Z,4.90
2018-08-11T01:34:48.311Z,5.00
2018-08-11T01:35:21.896Z,4.60
2018-08-11T01:35:55.475Z,5.15
2018-08-11T01:36:29.017Z,4.78
2018-08-11T01:37:02.567Z,5.10
2018-08-11T01:37:36.769Z,4.92
2018-08-11T01:38:10.389Z,4.90
2018-08-11T01:38:43.945Z,5.20
2018-08-11T01:39:17.557Z,4.78
2018-08-11T01:39:51.117Z,5.12
2018-08-11T01:40:24.679Z,4.97
2018-08-11T01:40:58.249Z,4.80
2018-08-11T01:41:31.813Z,4.80
2018-08-11T01:42:05.365Z,4.75
2018-08-11T01:42:39.886Z,4.70
2018-08-11T01:43:13.525Z,5.15
2018-08-11T01:43:47.120Z,4.83
2018-08-11T01:44:20.720Z,4.70
2018-08-11T01:44:54.354Z,4.90
2018-08-11T01:45:27.964Z,4.85
2018-08-11T01:46:01.563Z,4.95
2018-08-11T01:46:35.120Z,4.90
2018-08-11T01:47:08.657Z,4.83
2018-08-11T01:47:42.459Z,5.00
2018-08-11T01:48:16.027Z,4.85
2018-08-11T01:48:49.575Z,5.20
2018-08-11T01:49:23.148Z,4.97
2018-08-11T01:49:56.911Z,4.70
2018-08-11T01:50:30.492Z,5.08
2018-08-11T01:51:04.086Z,5.20
2018-08-11T01:51:37.702Z,5.05
2018-08-11T01:52:11.297Z,5.20
2018-08-11T01:52:45.977Z,5.05
2018-08-11T01:53:19.521Z,5.10
2018-08-11T01:53:53.081Z,4.72
2018-08-11T01:54:26.669Z,4.90
2018-08-11T01:55:00.297Z,5.15
2018-08-11T01:55:33.851Z,4.80
2018-08-11T01:56:07.445Z,5.15
2018-08-11T01:56:40.967Z,4.97
2018-08-11T01:57:14.554Z,5.20
2018-08-11T01:57:48.125Z,5.10
2018-08-11T01:58:21.701Z,5.15
2018-08-11T01:58:55.246Z,4.87
2018-08-11T01:59:28.871Z,5.00
2018-08-11T02:00:02.563Z,5.30
2018-08-11T02:00:36.114Z,5.20
2018-08-11T02:01:09.734Z,4.90
2018-08-11T02:01:43.319Z,4.80
2018-08-11T02:02:16.926Z,5.20
2018-08-11T02:02:50.523Z,5.10
2018-08-11T02:03:24.088Z,5.00
2018-08-11T02:03:57.664Z,5.10
2018-08-11T02:04:31.228Z,5.45
2018-08-11T02:05:05.333Z,5.08
2018-08-11T02:05:38.876Z,5.45
2018-08-11T02:06:12.488Z,5.30
2018-08-11T02:06:46.033Z,4.87
2018-08-11T02:07:19.609Z,5.50
2018-08-11T02:07:53.153Z,5.33
2018-08-11T02:08:26.731Z,5.20
2018-08-11T02:09:00.292Z,5.15
2018-08-11T02:09:33.875Z,5.35
2018-08-11T02:10:11.885Z,5.20
2018-08-11T02:10:45.464Z,5.58
2018-08-11T02:11:19.113Z,5.30
2018-08-11T02:11:52.611Z,5.22
2018-08-11T02:12:26.131Z,5.08
2018-08-11T02:12:59.720Z,5.17
2018-08-11T02:13:33.303Z,5.30
2018-08-11T02:14:07.230Z,5.12
2018-08-11T02:14:40.788Z,5.08
2018-08-11T02:15:14.809Z,5.30
2018-08-11T02:15:48.397Z,5.17
2018-08-11T02:16:21.982Z,5.20
2018-08-11T02:16:55.641Z,5.15
2018-08-11T02:17:29.231Z,5.00
2018-08-11T02:18:02.899Z,4.97
2018-08-11T02:18:36.435Z,5.15
2018-08-11T02:19:10.060Z,5.15
2018-08-11T02:19:43.656Z,4.70
2018-08-11T02:20:18.543Z,5.12
2018-08-11T02:20:52.059Z,4.92
2018-08-11T02:21:25.625Z,4.95
2018-08-11T02:21:59.197Z,4.97
2018-08-11T02:22:32.759Z,4.85
2018-08-11T02:23:06.516Z,4.70
2018-08-11T02:23:40.072Z,4.80
2018-08-11T02:24:13.656Z,4.80
2018-08-11T02:24:47.219Z,5.05
2018-08-11T02:25:20.831Z,4.90
2018-08-11T02:25:54.432Z,4.83
2018-08-11T02:26:27.972Z,5.10
2018-08-11T02:27:01.493Z,5.25
2018-08-11T02:27:35.369Z,5.08
2018-08-11T02:28:08.944Z,5.28
2018-08-11T02:28:42.515Z,5.00
2018-08-11T02:29:16.074Z,5.13
2018-08-11T02:29:49.625Z,5.40
2018-08-11T02:30:23.268Z,5.12
2018-08-11T02:30:56.855Z,5.05
2018-08-11T02:31:30.465Z,5.28
2018-08-11T02:32:04.379Z,5.42
2018-08-11T02:32:38.283Z,5.55
2018-08-11T02:33:11.923Z,5.30
2018-08-11T02:33:45.533Z,5.28
2018-08-11T02:34:19.105Z,5.20
2018-08-11T02:34:52.683Z,5.60
2018-08-11T02:35:26.284Z,5.22
2018-08-11T02:35:59.831Z,5.03
2018-08-11T02:36:33.373Z,5.37
2018-08-11T02:37:07.046Z,5.00
2018-08-11T02:37:41.013Z,5.00
2018-08-11T02:38:14.621Z,5.10
2018-08-11T02:38:48.171Z,5.05
2018-08-11T02:39:21.788Z,5.22
2018-08-11T02:39:55.411Z,5.08
2018-08-11T02:40:28.971Z,5.08
2018-08-11T02:41:02.518Z,4.90
2018-08-11T02:41:36.135Z,4.85
2018-08-11T02:42:09.769Z,5.00
2018-08-11T02:42:43.397Z,5.20
2018-08-11T02:43:16.971Z,4.70
2018-08-11T02:43:50.496Z,5.10
2018-08-11T02:44:24.083Z,5.10
2018-08-11T02:44:57.717Z,5.00
2018-08-11T02:45:31.287Z,4.67
2018-08-11T02:46:04.986Z,4.70
2018-08-11T02:46:38.623Z,4.87
2018-08-11T02:47:12.203Z,5.00
2018-08-11T02:47:46.573Z,5.10
2018-08-11T02:48:20.158Z,4.83
2018-08-11T02:48:53.704Z,4.97
2018-08-11T02:49:27.269Z,5.15
2018-08-11T02:50:00.816Z,4.90
2018-08-11T02:50:34.402Z,5.10
2018-08-11T02:51:07.969Z,4.80
2018-08-11T02:51:41.505Z,5.03
2018-08-11T02:52:15.097Z,4.90
2018-08-11T02:52:48.629Z,5.00
2018-08-11T02:53:22.201Z,4.80
2018-08-11T02:53:55.761Z,5.00
2018-08-11T02:54:29.310Z,4.70
2018-08-11T02:55:02.965Z,4.70
2018-08-11T02:55:36.521Z,5.00
2018-08-11T02:56:10.097Z,5.00
2018-08-11T02:56:43.665Z,5.20
2018-08-11T02:57:17.205Z,5.05
2018-08-11T02:57:50.751Z,4.62
2018-08-11T02:58:24.343Z,4.97
2018-08-11T02:58:57.929Z,4.70
2018-08-11T02:59:31.459Z,4.75
2018-08-11T03:00:08.360Z,4.60
2018-08-11T03:00:41.930Z,4.50
2018-08-11T03:01:15.501Z,5.00
2018-08-11T03:01:49.065Z,4.78
2018-08-11T03:02:22.697Z,5.17
2018-08-11T03:02:56.265Z,4.72
2018-08-11T03:03:29.815Z,4.60
2018-08-11T03:04:03.406Z,4.78
2018-08-11T03:04:36.921Z,4.80
2018-08-11T03:05:10.473Z,4.70
2018-08-11T03:05:44.022Z,4.80
2018-08-11T03:06:17.605Z,4.90
2018-08-11T03:06:51.501Z,4.83
2018-08-11T03:07:25.061Z,4.70
2018-08-11T03:07:58.596Z,4.85
2018-08-11T03:08:32.138Z,4.90
2018-08-11T03:09:08.091Z,4.60
2018-08-11T03:09:41.615Z,4.80
2018-08-11T03:10:15.183Z,4.65
2018-08-11T03:10:48.741Z,4.50
2018-08-11T03:11:22.339Z,5.00
2018-08-11T03:11:55.897Z,4.90
2018-08-11T03:12:29.479Z,4.80
2018-08-11T03:13:03.046Z,4.87
2018-08-11T03:13:36.574Z,5.37
2018-08-11T03:14:10.248Z,4.75
2018-08-11T03:14:43.693Z,4.70
2018-08-11T03:15:17.280Z,4.78
2018-08-11T03:15:50.877Z,4.80
2018-08-11T03:16:24.458Z,4.40
2018-08-11T03:16:57.993Z,4.47
2018-08-11T03:17:31.537Z,4.40
2018-08-11T03:18:05.271Z,4.35
2018-08-11T03:18:38.813Z,4.12
2018-08-11T03:19:12.361Z,4.35
2018-08-11T03:19:45.947Z,4.00
2018-08-11T03:20:19.495Z,4.37
2018-08-11T03:20:53.111Z,4.22
2018-08-11T03:21:26.637Z,4.20
2018-08-11T03:22:00.230Z,4.30
2018-08-11T03:22:33.785Z,4.47
2018-08-11T03:23:07.319Z,4.53
2018-08-11T03:23:40.865Z,4.60
2018-08-11T03:24:14.401Z,4.60
2018-08-11T03:24:47.997Z,4.30
2018-08-11T03:25:21.555Z,4.47
2018-08-11T03:25:55.132Z,4.58
2018-08-11T03:26:28.655Z,4.72
2018-08-11T03:27:02.242Z,4.70
2018-08-11T03:27:35.775Z,4.30
2018-08-11T03:28:09.293Z,4.67
2018-08-11T03:28:42.827Z,4.40
2018-08-11T03:29:16.335Z,4.87
2018-08-11T03:29:49.883Z,4.60
2018-08-11T03:30:23.425Z,4.70
2018-08-11T03:30:56.952Z,4.65
2018-08-11T03:31:30.503Z,4.42
2018-08-11T03:32:04.095Z,4.33
2018-08-11T03:32:37.647Z,4.30
2018-08-11T03:33:11.161Z,4.58
2018-08-11T03:33:44.725Z,4.40
2018-08-11T03:34:18.255Z,4.60
2018-08-11T03:34:51.788Z,4.28
2018-08-11T03:35:25.324Z,4.40
2018-08-11T03:35:58.841Z,4.55
2018-08-11T03:36:32.392Z,4.47
2018-08-11T03:37:06.033Z,4.25
2018-08-11T03:37:39.634Z,4.40
2018-08-11T03:38:13.189Z,4.47
2018-08-11T03:38:46.741Z,4.40
2018-08-11T03:39:20.297Z,4.30
2018-08-11T03:39:53.860Z,4.42
2018-08-11T03:40:27.371Z,4.33
2018-08-11T03:41:00.925Z,4.37
2018-08-11T03:41:34.489Z,4.20
2018-08-11T03:42:08.060Z,4.67
2018-08-11T03:42:42.123Z,4.70
2018-08-11T03:43:15.635Z,4.65
2018-08-11T03:43:49.140Z,4.40
2018-08-11T03:44:22.711Z,4.40
2018-08-11T03:44:56.242Z,4.50
2018-08-11T03:45:29.772Z,4.42
2018-08-11T03:46:03.399Z,4.60
2018-08-11T03:46:36.878Z,4.37
2018-08-11T03:47:10.453Z,4.87
2018-08-11T03:47:43.945Z,4.45
2018-08-11T03:48:17.475Z,4.40
2018-08-11T03:48:51.011Z,4.50
2018-08-11T03:49:24.554Z,4.53
2018-08-11T03:49:58.135Z,4.65
2018-08-11T03:50:31.708Z,4.72
2018-08-11T03:51:05.238Z,4.80
2018-08-11T03:51:38.825Z,5.00
2018-08-11T03:52:12.425Z,4.72
2018-08-11T03:52:45.950Z,4.90
2018-08-11T03:53:19.510Z,4.78
2018-08-11T03:53:53.039Z,5.00
2018-08-11T03:54:26.604Z,4.92
2018-08-11T03:55:00.159Z,4.87
2018-08-11T03:55:33.689Z,4.90
2018-08-11T03:56:07.256Z,4.92
2018-08-11T03:56:40.823Z,4.60
2018-08-11T03:57:14.388Z,4.78
2018-08-11T03:57:47.913Z,4.58
2018-08-11T03:58:21.437Z,4.85
2018-08-11T03:58:54.940Z,5.08
2018-08-11T03:59:28.559Z,4.70
2018-08-11T04:00:02.285Z,4.62
2018-08-11T04:00:35.792Z,4.50
2018-08-11T04:01:09.370Z,4.90
2018-08-11T04:01:42.946Z,4.20
2018-08-11T04:02:16.459Z,4.97
2018-08-11T04:02:50.015Z,4.78
2018-08-11T04:03:23.568Z,4.50
2018-08-11T04:03:57.105Z,5.10
2018-08-11T04:04:30.644Z,4.85
2018-08-11T04:05:04.516Z,4.80
2018-08-11T04:05:38.061Z,4.58
2018-08-11T04:06:11.594Z,4.75
2018-08-11T04:06:45.217Z,4.70
2018-08-11T04:07:18.721Z,4.60
2018-08-11T04:07:52.243Z,4.42
2018-08-11T04:08:25.818Z,5.33
2018-08-11T04:08:59.335Z,4.95
2018-08-11T04:09:32.899Z,4.60
2018-08-11T04:10:06.501Z,4.95
2018-08-11T04:10:40.039Z,4.70
2018-08-11T04:11:13.607Z,4.80
2018-08-11T04:11:47.097Z,4.47
2018-08-11T04:12:20.641Z,4.40
2018-08-11T04:12:54.173Z,4.67
2018-08-11T04:13:27.702Z,4.65
2018-08-11T04:14:01.191Z,4.42
2018-08-11T04:14:34.734Z,4.40
2018-08-11T04:15:08.292Z,4.50
2018-08-11T04:15:41.885Z,4.60
2018-08-11T04:16:15.504Z,4.55
2018-08-11T04:16:49.021Z,4.55
2018-08-11T04:17:31.120Z,4.60
2018-08-11T04:18:04.756Z,4.65
2018-08-11T04:18:38.318Z,4.40
2018-08-11T04:19:11.896Z,4.53
2018-08-11T04:19:45.459Z,4.40
2018-08-11T04:20:19.088Z,4.45
2018-08-11T04:20:52.623Z,4.45
2018-08-11T04:21:26.141Z,4.40
2018-08-11T04:21:59.694Z,4.70
2018-08-11T04:22:33.296Z,4.37
2018-08-11T04:23:06.900Z,4.53
2018-08-11T04:23:40.463Z,4.50
2018-08-11T04:24:14.011Z,4.17
2018-08-11T04:24:47.594Z,4.28
2018-08-11T04:25:21.113Z,4.60
2018-08-11T04:25:54.676Z,4.47
2018-08-11T04:26:28.273Z,4.80
2018-08-11T04:27:01.801Z,4.35
2018-08-11T04:27:35.882Z,4.40
2018-08-11T04:28:09.372Z,4.37
2018-08-11T04:28:42.904Z,4.65
2018-08-11T04:29:16.453Z,4.58
2018-08-11T04:29:50.002Z,4.50
2018-08-11T04:30:23.493Z,4.40
2018-08-11T04:30:57.040Z,4.42
2018-08-11T04:31:30.602Z,4.72
2018-08-11T04:32:04.203Z,4.40
2018-08-11T04:32:37.992Z,4.30
2018-08-11T04:33:11.558Z,4.30
2018-08-11T04:33:45.082Z,4.28
2018-08-11T04:34:18.590Z,4.20
2018-08-11T04:34:52.101Z,3.98
2018-08-11T04:35:25.633Z,4.20
2018-08-11T04:35:59.220Z,4.20
2018-08-11T04:36:32.786Z,4.22
2018-08-11T04:37:06.355Z,4.00
2018-08-11T04:37:39.886Z,3.95
2018-08-11T04:38:13.412Z,3.87
2018-08-11T04:38:46.960Z,3.80
2018-08-11T04:39:20.476Z,4.00
2018-08-11T04:39:54.067Z,3.90
2018-08-11T04:40:27.595Z,4.10
2018-08-11T04:41:01.144Z,4.00
2018-08-11T04:41:34.731Z,3.90
2018-08-11T04:42:08.312Z,4.15
2018-08-11T04:42:41.791Z,3.80
2018-08-11T04:43:15.348Z,4.05
2018-08-11T04:43:48.883Z,3.95
2018-08-11T04:44:22.463Z,3.90
2018-08-11T04:44:55.992Z,3.80
2018-08-11T04:45:29.532Z,4.00
2018-08-11T04:46:03.079Z,3.83
2018-08-11T04:46:36.648Z,4.00
2018-08-11T04:47:10.285Z,4.10
2018-08-11T04:47:43.807Z,3.90
2018-08-11T04:48:17.364Z,3.72
2018-08-11T04:48:50.913Z,3.70
2018-08-11T04:49:24.439Z,4.40
2018-08-11T04:49:57.974Z,4.00
2018-08-11T04:50:31.522Z,3.85
2018-08-11T04:51:05.113Z,4.00
2018-08-11T04:51:38.682Z,4.03
2018-08-11T04:52:12.203Z,4.03
2018-08-11T04:52:45.749Z,3.90
2018-08-11T04:53:19.261Z,3.98
2018-08-11T04:53:52.816Z,3.98
2018-08-11T04:54:26.359Z,4.00
2018-08-11T04:54:59.893Z,3.90
2018-08-11T04:55:33.438Z,3.98
2018-08-11T04:56:06.990Z,3.80
2018-08-11T04:56:40.588Z,4.12
2018-08-11T04:57:14.158Z,3.90
2018-08-11T04:57:47.692Z,3.77
2018-08-11T04:58:21.262Z,3.80
2018-08-11T04:58:54.830Z,4.17
2018-08-11T04:59:28.453Z,4.10
2018-08-11T05:00:02.025Z,4.10
2018-08-11T05:00:35.634Z,3.90
2018-08-11T05:01:09.220Z,4.00
2018-08-11T05:01:42.752Z,3.90
2018-08-11T05:02:16.316Z,4.08
2018-08-11T05:02:49.888Z,4.00
2018-08-11T05:03:23.433Z,3.92
2018-08-11T05:03:57.014Z,4.10
2018-08-11T05:04:30.522Z,3.70
2018-08-11T05:05:04.932Z,3.87
2018-08-11T05:05:38.487Z,3.92
2018-08-11T05:06:12.011Z,3.98
2018-08-11T05:06:45.591Z,3.80
2018-08-11T05:07:19.101Z,4.00
2018-08-11T05:07:52.611Z,3.83
2018-08-11T05:08:26.171Z,3.92
2018-08-11T05:08:59.727Z,3.90
2018-08-11T05:09:33.309Z,3.93
2018-08-11T05:10:07.699Z,4.05
2018-08-11T05:10:41.274Z,4.25
2018-08-11T05:11:14.854Z,3.62
2018-08-11T05:11:48.464Z,3.90
2018-08-11T05:12:22.015Z,3.77
2018-08-11T05:12:55.536Z,3.90
2018-08-11T05:13:29.080Z,3.80
2018-08-11T05:14:02.766Z,3.75
2018-08-11T05:14:36.296Z,3.90
2018-08-11T05:15:09.950Z,4.08
2018-08-11T05:15:43.526Z,3.90
2018-08-11T05:16:17.058Z,3.87
2018-08-11T05:16:50.604Z,3.80
2018-08-11T05:17:24.174Z,3.95
2018-08-11T05:17:57.791Z,4.03
2018-08-11T05:18:31.414Z,3.87
2018-08-11T05:19:05.284Z,4.00
2018-08-11T05:19:38.826Z,3.70
2018-08-11T05:20:12.445Z,4.15
2018-08-11T05:20:45.984Z,3.97
2018-08-11T05:21:19.504Z,4.12
2018-08-11T05:21:53.072Z,4.00
2018-08-11T05:22:26.617Z,4.40
2018-08-11T05:23:00.159Z,4.17
2018-08-11T05:23:33.732Z,3.75
2018-08-11T05:24:07.532Z,3.98
2018-08-11T05:24:41.075Z,3.90
2018-08-11T05:25:14.586Z,4.00
2018-08-11T05:25:48.175Z,3.90
2018-08-11T05:26:21.746Z,4.10
2018-08-11T05:26:55.277Z,4.42
2018-08-11T05:27:28.860Z,3.83
2018-08-11T05:28:02.410Z,4.37
2018-08-11T05:28:35.963Z,3.85
2018-08-11T05:29:09.530Z,4.10
2018-08-11T05:29:43.105Z,4.40
2018-08-11T05:30:16.698Z,4.00
2018-08-11T05:30:50.250Z,4.00
2018-08-11T05:31:23.790Z,4.15
2018-08-11T05:31:57.329Z,3.85
2018-08-11T05:32:30.886Z,4.08
2018-08-11T05:33:04.786Z,3.90
2018-08-11T05:33:38.372Z,4.08
2018-08-11T05:34:11.899Z,3.90
2018-08-11T05:34:45.434Z,3.75
2018-08-11T05:35:18.975Z,3.90
2018-08-11T05:35:52.492Z,3.90
2018-08-11T05:36:26.060Z,3.80
2018-08-11T05:36:59.645Z,3.80
2018-08-11T05:37:33.526Z,3.75
2018-08-11T05:38:07.066Z,3.77
2018-08-11T05:38:40.602Z,3.80
2018-08-11T05:39:14.368Z,3.90
2018-08-11T05:39:47.923Z,3.92
2018-08-11T05:40:21.469Z,4.00
2018-08-11T05:40:55.011Z,4.05
2018-08-11T05:41:28.578Z,3.83
2018-08-11T05:42:02.201Z,4.28
2018-08-11T05:42:35.754Z,3.75
2018-08-11T05:43:09.263Z,3.83
2018-08-11T05:43:42.836Z,4.17
2018-08-11T05:44:16.368Z,3.92
2018-08-11T05:44:49.938Z,4.05
2018-08-11T05:45:23.492Z,3.67
2018-08-11T05:45:57.044Z,4.00
2018-08-11T05:46:30.585Z,3.80
2018-08-11T05:47:04.287Z,4.00
2018-08-11T05:47:37.889Z,4.05
2018-08-11T05:48:11.518Z,3.80
2018-08-11T05:48:45.081Z,4.28
2018-08-11T05:49:18.603Z,4.08
2018-08-11T05:49:52.436Z,4.28
2018-08-11T05:50:25.980Z,3.85
2018-08-11T05:50:59.538Z,3.80
2018-08-11T05:51:33.068Z,3.92
2018-08-11T05:52:06.669Z,4.00
2018-08-11T05:52:40.238Z,3.90
2018-08-11T05:53:13.805Z,3.90
2018-08-11T05:53:47.353Z,4.05
2018-08-11T05:54:20.898Z,3.77
2018-08-11T05:54:54.432Z,3.90
2018-08-11T05:55:27.971Z,3.80
2018-08-11T05:56:01.528Z,3.87
2018-08-11T05:56:35.066Z,3.80
2018-08-11T05:57:08.598Z,4.08
2018-08-11T05:57:42.344Z,3.90
2018-08-11T05:58:15.891Z,3.90
2018-08-11T05:58:49.440Z,3.90
2018-08-11T05:59:23.011Z,3.85
2018-08-11T05:59:56.557Z,4.00
2018-08-11T06:00:30.129Z,4.05
2018-08-11T06:01:03.717Z,3.90
2018-08-11T06:01:37.238Z,3.80
2018-08-11T06:02:10.822Z,4.00
2018-08-11T06:02:44.428Z,4.50
2018-08-11T06:03:18.326Z,3.80
2018-08-11T06:03:51.906Z,4.10
2018-08-11T06:04:25.622Z,4.03
2018-08-11T06:04:59.168Z,3.92
2018-08-11T06:05:32.698Z,4.00
2018-08-11T06:06:06.269Z,4.08
2018-08-11T06:06:39.815Z,3.90
2018-08-11T06:07:13.416Z,4.03
2018-08-11T06:07:46.956Z,4.00
2018-08-11T06:08:20.599Z,4.28
2018-08-11T06:08:54.133Z,4.25
2018-08-11T06:09:27.670Z,3.80
2018-08-11T06:10:01.247Z,4.15
2018-08-11T06:10:34.876Z,4.03
2018-08-11T06:11:08.410Z,4.20
2018-08-11T06:11:42.018Z,4.05
2018-08-11T06:12:15.585Z,4.00
2018-08-11T06:12:49.112Z,3.92
2018-08-11T06:13:22.638Z,4.00
2018-08-11T06:13:56.183Z,3.90
2018-08-11T06:14:29.708Z,4.28
2018-08-11T06:15:03.821Z,4.35
2018-08-11T06:15:37.400Z,4.12
2018-08-11T06:16:10.963Z,3.85
2018-08-11T06:16:44.479Z,4.40
2018-08-11T06:17:18.065Z,4.12
2018-08-11T06:17:51.648Z,4.10
2018-08-11T06:18:25.160Z,4.10
2018-08-11T06:18:58.717Z,4.20
2018-08-11T06:19:32.236Z,4.22
2018-08-11T06:20:07.824Z,4.25
2018-08-11T06:20:41.384Z,3.98
2018-08-11T06:21:15.052Z,3.98
2018-08-11T06:21:48.543Z,4.05
2018-08-11T06:22:22.152Z,3.90
2018-08-11T06:22:55.705Z,4.40
2018-08-11T06:23:29.238Z,4.12
2018-08-11T06:24:02.840Z,3.90
2018-08-11T06:24:36.429Z,4.20
2018-08-11T06:25:10.616Z,4.03
2018-08-11T06:25:44.174Z,4.00
2018-08-11T06:26:17.696Z,4.00
2018-08-11T06:26:51.474Z,3.95
2018-08-11T06:27:25.043Z,3.87
2018-08-11T06:27:58.600Z,4.10
2018-08-11T06:28:32.136Z,3.80
2018-08-11T06:29:05.752Z,3.92
2018-08-11T06:29:39.347Z,4.22
2018-08-11T06:30:12.980Z,4.20
2018-08-11T06:30:46.492Z,4.25
2018-08-11T06:31:20.075Z,4.00
2018-08-11T06:31:53.719Z,4.15
2018-08-11T06:32:27.230Z,4.30
2018-08-11T06:33:00.812Z,4.30
2018-08-11T06:33:34.395Z,3.90
2018-08-11T06:34:07.984Z,3.85
2018-08-11T06:34:41.537Z,4.15
2018-08-11T06:35:15.079Z,3.95
2018-08-11T06:35:48.670Z,4.20
2018-08-11T06:36:22.231Z,4.00
2018-08-11T06:36:55.798Z,4.12
2018-08-11T06:37:29.395Z,4.10
2018-08-11T06:38:03.020Z,4.00
2018-08-11T06:38:36.587Z,4.05
2018-08-11T06:39:12.542Z,4.22
2018-08-11T06:39:46.093Z,3.90
2018-08-11T06:40:19.696Z,4.00
2018-08-11T06:40:53.276Z,4.15
2018-08-11T06:41:26.800Z,3.98
2018-08-11T06:42:00.337Z,4.10
2018-08-11T06:42:33.952Z,4.47
2018-08-11T06:43:07.517Z,4.33
2018-08-11T06:43:41.043Z,4.08
2018-08-11T06:44:14.586Z,3.90
2018-08-11T06:44:48.232Z,4.20
2018-08-11T06:45:22.003Z,4.47
2018-08-11T06:45:55.648Z,4.30
2018-08-11T06:46:29.358Z,4.10
2018-08-11T06:47:03.067Z,4.20
2018-08-11T06:47:36.684Z,4.30
2018-08-11T06:48:10.301Z,4.08
2018-08-11T06:48:43.889Z,4.40
2018-08-11T06:49:17.415Z,4.00
2018-08-11T06:49:50.977Z,4.10
2018-08-11T06:50:24.502Z,4.12
2018-08-11T06:50:58.033Z,4.00
2018-08-11T06:51:31.622Z,4.00
2018-08-11T06:52:05.288Z,4.00
2018-08-11T06:52:38.796Z,4.20
2018-08-11T06:53:12.338Z,4.10
2018-08-11T06:53:45.892Z,4.00
2018-08-11T06:54:19.460Z,3.98
2018-08-11T06:54:53.005Z,4.08
2018-08-11T06:55:26.568Z,4.30
2018-08-11T06:56:00.151Z,3.90
2018-08-11T06:56:33.668Z,4.30
2018-08-11T06:57:07.212Z,4.12
2018-08-11T06:57:40.788Z,4.03
2018-08-11T06:58:14.358Z,4.10
2018-08-11T06:58:47.872Z,3.98
2018-08-11T06:59:21.384Z,3.98
2018-08-11T06:59:55.070Z,4.28
2018-08-11T07:00:28.622Z,3.90
2018-08-11T07:01:02.156Z,3.98
2018-08-11T07:01:35.820Z,3.90
2018-08-11T07:02:09.379Z,3.90
2018-08-11T07:02:42.939Z,3.87
2018-08-11T07:03:16.742Z,3.95
2018-08-11T07:03:50.291Z,3.85
2018-08-11T07:04:23.852Z,3.77
2018-08-11T07:04:57.408Z,3.90
2018-08-11T07:05:30.956Z,3.98
2018-08-11T07:06:04.530Z,4.00
2018-08-11T07:06:38.701Z,3.90
2018-08-11T07:07:12.230Z,4.30
2018-08-11T07:07:45.829Z,3.83
2018-08-11T07:08:19.334Z,3.85
2018-08-11T07:08:52.877Z,4.00
2018-08-11T07:09:26.418Z,3.77
2018-08-11T07:09:59.960Z,3.90
2018-08-11T07:10:33.607Z,3.80
2018-08-11T07:11:07.223Z,3.92
2018-08-11T07:11:40.720Z,3.90
2018-08-11T07:12:14.249Z,3.98
2018-08-11T07:12:47.776Z,4.10
2018-08-11T07:13:21.340Z,4.05
2018-08-11T07:13:54.917Z,4.10
2018-08-11T07:14:28.472Z,4.00
2018-08-11T07:15:01.998Z,3.98
2018-08-11T07:15:35.589Z,3.90
2018-08-11T07:16:09.150Z,4.17
2018-08-11T07:16:42.720Z,3.98
2018-08-11T07:17:16.256Z,3.90
2018-08-11T07:17:49.818Z,3.90
2018-08-11T07:18:23.384Z,4.08
2018-08-11T07:18:56.938Z,3.70
2018-08-11T07:19:30.466Z,3.98
2018-08-11T07:20:04.519Z,3.92
2018-08-11T07:20:38.117Z,4.03
2018-08-11T07:21:11.704Z,4.20
2018-08-11T07:21:45.713Z,3.90
2018-08-11T07:22:19.269Z,4.05
2018-08-11T07:22:52.775Z,3.90
2018-08-11T07:23:26.329Z,4.00
2018-08-11T07:23:59.892Z,4.30
2018-08-11T07:24:33.440Z,4.10
2018-08-11T07:25:06.982Z,3.87
2018-08-11T07:25:40.518Z,4.00
2018-08-11T07:26:14.069Z,3.85
2018-08-11T07:26:47.594Z,4.00
2018-08-11T07:27:21.153Z,4.25
2018-08-11T07:27:54.709Z,4.00
2018-08-11T07:28:28.252Z,7.85